createdAt,value
2018-02-07T00:00:26.003Z,-0.01
2018-02-07T00:01:25.932Z,-0.05
2018-02-07T00:02:25.960Z,-0.02
2018-02-07T00:03:25.915Z,-0.03
2018-02-07T00:04:25.831Z,-0.05
2018-02-07T00:05:25.888Z,-0.05
2018-02-07T00:06:25.911Z,-0.06
2018-02-07T00:07:25.795Z,-0.05
2018-02-07T00:08:25.915Z,-0.06
2018-02-07T00:09:25.829Z,-0.07
2018-02-07T00:10:25.678Z,-0.1
2018-02-07T00:11:25.824Z,-0.09
2018-02-07T00:12:25.784Z,-0.1
2018-02-07T00:13:25.858Z,-0.1
2018-02-07T00:14:25.911Z,-0.11
2018-02-07T00:15:25.794Z,-0.11
2018-02-07T00:16:25.785Z,-0.11
2018-02-07T00:17:25.893Z,-0.11
2018-02-07T00:18:25.931Z,-0.12
2018-02-07T00:19:25.741Z,-0.17
2018-02-07T00:20:25.751Z,-0.19
2018-02-07T00:21:25.665Z,-0.22
2018-02-07T00:22:25.703Z,-0.32
2018-02-07T00:23:25.851Z,-0.29
2018-02-07T00:24:25.870Z,-0.31
2018-02-07T00:25:25.712Z,-0.34
2018-02-07T00:26:25.721Z,-0.29
2018-02-07T00:27:25.852Z,-0.31
2018-02-07T00:28:25.681Z,-0.29
2018-02-07T00:29:25.895Z,-0.3
2018-02-07T00:30:25.781Z,-0.29
2018-02-07T00:31:25.736Z,-0.29
2018-02-07T00:32:25.870Z,-0.3
2018-02-07T00:33:25.838Z,-0.34
2018-02-07T00:34:25.826Z,-0.34
2018-02-07T00:35:26.652Z,-0.34
2018-02-07T00:36:26.586Z,-0.34
2018-02-07T00:37:26.673Z,-0.31
2018-02-07T00:38:26.775Z,-0.34
2018-02-07T00:39:26.581Z,-0.34
2018-02-07T00:40:26.815Z,-0.31
2018-02-07T00:41:26.637Z,-0.34
2018-02-07T00:42:26.597Z,-0.33
2018-02-07T00:43:26.587Z,-0.33
2018-02-07T00:44:26.801Z,-0.31
2018-02-07T00:45:26.701Z,-0.31
2018-02-07T00:46:26.607Z,-0.31
2018-02-07T00:47:26.706Z,-0.33
2018-02-07T00:48:26.715Z,-0.33
2018-02-07T00:50:28.241Z,-0.4
2018-02-07T00:51:26.736Z,-0.37
2018-02-07T00:52:26.806Z,-0.37
2018-02-07T00:53:26.759Z,-0.4
2018-02-07T00:54:26.755Z,-0.41
2018-02-07T00:55:26.760Z,-0.4
2018-02-07T00:56:26.671Z,-0.41
2018-02-07T00:57:26.729Z,-0.41
2018-02-07T00:58:26.764Z,-0.45
2018-02-07T00:59:26.763Z,-0.42
2018-02-07T01:00:26.741Z,-0.42
2018-02-07T01:01:26.774Z,-0.41
2018-02-07T01:02:26.637Z,-0.44
2018-02-07T01:03:26.612Z,-0.45
2018-02-07T01:04:26.700Z,-0.42
2018-02-07T01:05:26.453Z,-0.43
2018-02-07T01:06:26.508Z,-0.43
2018-02-07T01:07:26.602Z,-0.42
2018-02-07T01:08:26.650Z,-0.46
2018-02-07T01:09:26.666Z,-0.43
2018-02-07T01:10:26.476Z,-0.47
2018-02-07T01:11:26.667Z,-0.48
2018-02-07T01:12:26.391Z,-0.51
2018-02-07T01:13:26.396Z,-0.5
2018-02-07T01:14:26.349Z,-0.52
2018-02-07T01:15:26.524Z,-0.52
2018-02-07T01:16:26.586Z,-0.52
2018-02-07T01:17:26.505Z,-0.52
2018-02-07T01:18:26.451Z,-0.53
2018-02-07T01:19:26.366Z,-0.53
2018-02-07T01:20:26.628Z,-0.53
2018-02-07T01:21:26.440Z,-0.54
2018-02-07T01:22:26.438Z,-0.56
2018-02-07T01:23:26.513Z,-0.56
2018-02-07T01:24:26.479Z,-0.59
2018-02-07T01:25:26.532Z,-0.56
2018-02-07T01:26:26.495Z,-0.6
2018-02-07T01:27:26.556Z,-0.61
2018-02-07T01:28:26.604Z,-0.62
2018-02-07T01:29:26.530Z,-0.66
2018-02-07T01:30:26.699Z,-0.65
2018-02-07T01:31:26.625Z,-0.67
2018-02-07T01:32:26.593Z,-0.65
2018-02-07T01:33:26.462Z,-0.68
2018-02-07T01:34:26.499Z,-0.7
2018-02-07T01:35:26.544Z,-0.71
2018-02-07T01:36:26.411Z,-0.72
2018-02-07T01:37:26.521Z,-0.73
2018-02-07T01:38:26.476Z,-0.72
2018-02-07T01:39:26.373Z,-0.78
2018-02-07T01:40:26.870Z,-0.8
2018-02-07T01:41:26.558Z,-0.79
2018-02-07T01:42:26.522Z,-0.79
2018-02-07T01:43:26.464Z,-0.79
2018-02-07T01:44:26.435Z,-0.83
2018-02-07T01:45:26.432Z,-0.83
2018-02-07T01:46:26.439Z,-0.83
2018-02-07T01:47:26.283Z,-0.83
2018-02-07T01:48:26.366Z,-0.84
2018-02-07T01:49:26.525Z,-0.85
2018-02-07T01:50:26.544Z,-0.84
2018-02-07T01:51:26.414Z,-0.84
2018-02-07T01:52:26.519Z,-0.83
2018-02-07T01:53:26.520Z,-0.84
2018-02-07T01:54:26.499Z,-0.8
2018-02-07T01:55:26.410Z,-0.8
2018-02-07T01:56:26.260Z,-0.79
2018-02-07T01:57:26.388Z,-0.81
2018-02-07T01:58:26.466Z,-0.8
2018-02-07T01:59:26.498Z,-0.8
2018-02-07T02:00:26.509Z,-0.85
2018-02-07T02:01:26.330Z,-0.86
2018-02-07T02:02:26.393Z,-0.86
2018-02-07T02:03:26.462Z,-0.9
2018-02-07T02:04:26.408Z,-0.9
2018-02-07T02:05:26.502Z,-0.9
2018-02-07T02:06:26.304Z,-0.91
2018-02-07T02:07:26.266Z,-0.92
2018-02-07T02:08:26.183Z,-0.93
2018-02-07T02:09:26.357Z,-0.92
2018-02-07T02:10:26.284Z,-0.95
2018-02-07T02:11:26.145Z,-0.97
2018-02-07T02:12:26.216Z,-0.96
2018-02-07T02:13:26.087Z,-0.97
2018-02-07T02:14:26.239Z,-1.02
2018-02-07T02:15:26.007Z,-1.01
2018-02-07T02:16:26.313Z,-1.02
2018-02-07T02:17:26.217Z,-1.02
2018-02-07T02:18:26.286Z,-1.02
2018-02-07T02:19:26.099Z,-0.98
2018-02-07T02:20:26.284Z,-1
2018-02-07T02:21:26.334Z,-1.03
2018-02-07T02:22:26.012Z,-1
2018-02-07T02:23:26.262Z,-1.02
2018-02-07T02:24:26.162Z,-0.99
2018-02-07T02:25:26.190Z,-0.99
2018-02-07T02:26:26.086Z,-0.98
2018-02-07T02:27:26.156Z,-0.98
2018-02-07T02:28:26.200Z,-0.97
2018-02-07T02:29:26.309Z,-0.99
2018-02-07T02:30:26.114Z,-0.98
2018-02-07T02:31:26.095Z,-0.99
2018-02-07T02:32:26.220Z,-0.98
2018-02-07T02:33:26.087Z,-0.99
2018-02-07T02:34:26.253Z,-0.99
2018-02-07T02:35:26.161Z,-1.01
2018-02-07T02:36:26.107Z,-1
2018-02-07T02:37:26.286Z,-1.02
2018-02-07T02:38:26.052Z,-1
2018-02-07T02:39:26.091Z,-1.04
2018-02-07T02:40:26.072Z,-1.04
2018-02-07T02:41:26.031Z,-0.99
2018-02-07T02:42:26.080Z,-1.03
2018-02-07T02:43:25.995Z,-1.03
2018-02-07T02:44:26.045Z,-1.01
2018-02-07T02:45:26.323Z,-1.05
2018-02-07T02:46:26.126Z,-1.01
2018-02-07T02:47:26.082Z,-1.03
2018-02-07T02:48:26.149Z,-1.04
2018-02-07T02:49:26.232Z,-1.03
2018-02-07T02:50:26.298Z,-1.05
2018-02-07T02:51:26.183Z,-1.05
2018-02-07T02:52:26.098Z,-1.05
2018-02-07T02:53:26.046Z,-1.06
2018-02-07T02:54:26.172Z,-1.05
2018-02-07T02:55:26.139Z,-1.07
2018-02-07T02:56:26.022Z,-1.15
2018-02-07T02:57:26.089Z,-1.18
2018-02-07T02:58:26.158Z,-1.16
2018-02-07T02:59:26.189Z,-1.17
2018-02-07T03:00:26.100Z,-1.18
2018-02-07T03:01:26.034Z,-1.16
2018-02-07T03:02:26.156Z,-1.17
2018-02-07T03:03:26.002Z,-1.16
2018-02-07T03:04:26.303Z,-1.16
2018-02-07T03:05:26.053Z,-1.16
2018-02-07T03:06:26.047Z,-1.16
2018-02-07T03:07:26.250Z,-1.16
2018-02-07T03:08:26.096Z,-1.17
2018-02-07T03:09:25.976Z,-1.17
2018-02-07T03:10:25.911Z,-1.16
2018-02-07T03:11:25.841Z,-1.17
2018-02-07T03:12:25.781Z,-1.18
2018-02-07T03:13:25.942Z,-1.18
2018-02-07T03:14:25.945Z,-1.21
2018-02-07T03:15:25.998Z,-1.22
2018-02-07T03:16:25.848Z,-1.19
2018-02-07T03:17:25.882Z,-1.19
2018-02-07T03:18:26.096Z,-1.19
2018-02-07T03:19:25.839Z,-1.19
2018-02-07T03:20:26.010Z,-1.22
2018-02-07T03:21:25.888Z,-1.19
2018-02-07T03:22:25.887Z,-1.24
2018-02-07T03:23:26.017Z,-1.24
2018-02-07T03:24:25.931Z,-1.28
2018-02-07T03:25:25.910Z,-1.28
2018-02-07T03:26:25.967Z,-1.28
2018-02-07T03:27:25.998Z,-1.3
2018-02-07T03:28:25.829Z,-1.33
2018-02-07T03:29:26.069Z,-1.32
2018-02-07T03:30:26.137Z,-1.3
2018-02-07T03:31:25.883Z,-1.3
2018-02-07T03:32:25.872Z,-1.3
2018-02-07T03:33:25.938Z,-1.34
2018-02-07T03:34:25.934Z,-1.34
2018-02-07T03:35:25.999Z,-1.34
2018-02-07T03:36:25.988Z,-1.3
2018-02-07T03:37:26.030Z,-1.29
2018-02-07T03:38:26.065Z,-1.29
2018-02-07T03:39:25.865Z,-1.34
2018-02-07T03:40:26.611Z,-1.36
2018-02-07T03:41:27.358Z,-1.39
2018-02-07T03:42:26.605Z,-1.4
2018-02-07T03:43:27.145Z,-1.39
2018-02-07T03:44:26.902Z,-1.42
2018-02-07T03:45:26.626Z,-1.4
2018-02-07T03:46:26.682Z,-1.39
2018-02-07T03:47:26.607Z,-1.39
2018-02-07T03:48:26.697Z,-1.39
2018-02-07T03:49:26.685Z,-1.39
2018-02-07T03:50:26.630Z,-1.36
2018-02-07T03:51:26.811Z,-1.36
2018-02-07T03:52:26.639Z,-1.35
2018-02-07T03:53:26.549Z,-1.35
2018-02-07T03:54:26.787Z,-1.36
2018-02-07T03:55:26.781Z,-1.4
2018-02-07T03:56:26.885Z,-1.38
2018-02-07T03:57:26.827Z,-1.41
2018-02-07T03:58:26.673Z,-1.42
2018-02-07T03:59:26.793Z,-1.44
2018-02-07T04:00:26.688Z,-1.42
2018-02-07T04:01:26.694Z,-1.45
2018-02-07T04:02:26.726Z,-1.46
2018-02-07T04:03:26.968Z,-1.46
2018-02-07T04:04:27.141Z,-1.43
2018-02-07T04:05:26.837Z,-1.44
2018-02-07T04:06:26.620Z,-1.47
2018-02-07T04:07:26.832Z,-1.47
2018-02-07T04:08:26.813Z,-1.47
2018-02-07T04:09:26.892Z,-1.48
2018-02-07T04:11:27.211Z,-1.49
2018-02-07T04:12:26.776Z,-1.52
2018-02-07T04:13:26.890Z,-1.51
2018-02-07T04:14:27.143Z,-1.51
2018-02-07T04:15:26.632Z,-1.48
2018-02-07T04:16:26.807Z,-1.51
2018-02-07T04:17:26.780Z,-1.48
2018-02-07T04:18:26.821Z,-1.48
2018-02-07T04:19:26.681Z,-1.48
2018-02-07T04:20:26.756Z,-1.52
2018-02-07T04:21:26.768Z,-1.48
2018-02-07T04:22:26.622Z,-1.5
2018-02-07T04:23:26.712Z,-1.5
2018-02-07T04:24:26.700Z,-1.55
2018-02-07T04:25:26.706Z,-1.59
2018-02-07T04:26:26.790Z,-1.59
2018-02-07T04:27:26.607Z,-1.59
2018-02-07T04:28:26.844Z,-1.58
2018-02-07T04:29:26.692Z,-1.6
2018-02-07T04:30:26.857Z,-1.61
2018-02-07T04:31:26.704Z,-1.65
2018-02-07T04:32:26.804Z,-1.66
2018-02-07T04:33:26.822Z,-1.68
2018-02-07T04:34:26.913Z,-1.65
2018-02-07T04:35:27.058Z,-1.68
2018-02-07T04:36:26.886Z,-1.64
2018-02-07T04:37:26.869Z,-1.64
2018-02-07T04:38:26.744Z,-1.65
2018-02-07T04:39:26.759Z,-1.61
2018-02-07T04:40:26.634Z,-1.65
2018-02-07T04:41:26.637Z,-1.64
2018-02-07T04:42:26.352Z,-1.62
2018-02-07T04:43:26.693Z,-1.66
2018-02-07T04:44:26.553Z,-1.66
2018-02-07T04:45:26.506Z,-1.67
2018-02-07T04:46:26.615Z,-1.71
2018-02-07T04:47:26.427Z,-1.7
2018-02-07T04:48:26.371Z,-1.71
2018-02-07T04:49:26.335Z,-1.71
2018-02-07T04:50:26.540Z,-1.73
2018-02-07T04:51:26.527Z,-1.74
2018-02-07T04:52:26.602Z,-1.7
2018-02-07T04:53:26.476Z,-1.72
2018-02-07T04:54:26.366Z,-1.73
2018-02-07T04:55:26.650Z,-1.73
2018-02-07T04:56:26.592Z,-1.72
2018-02-07T04:57:26.296Z,-1.71
2018-02-07T04:58:26.431Z,-1.74
2018-02-07T04:59:26.512Z,-1.73
2018-02-07T05:00:26.432Z,-1.73
2018-02-07T05:01:26.492Z,-1.73
2018-02-07T05:02:26.478Z,-1.73
2018-02-07T05:03:27.265Z,-1.73
2018-02-07T05:04:26.504Z,-1.74
2018-02-07T05:05:26.449Z,-1.79
2018-02-07T05:06:26.571Z,-1.78
2018-02-07T05:07:26.380Z,-1.79
2018-02-07T05:08:26.503Z,-1.8
2018-02-07T05:09:26.335Z,-1.85
2018-02-07T05:10:26.512Z,-1.91
2018-02-07T05:11:26.367Z,-1.91
2018-02-07T05:12:26.137Z,-1.92
2018-02-07T05:13:26.165Z,-1.96
2018-02-07T05:14:26.419Z,-1.96
2018-02-07T05:15:26.232Z,-1.98
2018-02-07T05:16:26.383Z,-1.96
2018-02-07T05:17:26.392Z,-1.97
2018-02-07T05:18:26.345Z,-2.01
2018-02-07T05:19:26.340Z,-2.04
2018-02-07T05:20:26.113Z,-2.06
2018-02-07T05:21:26.355Z,-2.08
2018-02-07T05:22:26.375Z,-2.09
2018-02-07T05:23:26.414Z,-2.08
2018-02-07T05:24:26.413Z,-2.08
2018-02-07T05:25:26.365Z,-2.05
2018-02-07T05:26:26.146Z,-2.08
2018-02-07T05:27:26.138Z,-2.03
2018-02-07T05:28:26.219Z,-2.05
2018-02-07T05:29:26.171Z,-2.02
2018-02-07T05:30:26.162Z,-2.04
2018-02-07T05:31:26.218Z,-2.03
2018-02-07T05:32:26.122Z,-2.06
2018-02-07T05:33:26.222Z,-2.05
2018-02-07T05:34:26.261Z,-2.08
2018-02-07T05:35:26.343Z,-2.1
2018-02-07T05:36:26.424Z,-2.1
2018-02-07T05:37:26.283Z,-2.1
2018-02-07T05:38:26.189Z,-2.14
2018-02-07T05:39:26.147Z,-2.16
2018-02-07T05:40:26.190Z,-2.15
2018-02-07T05:41:26.689Z,-2.14
2018-02-07T05:42:26.509Z,-2.14
2018-02-07T05:43:27.176Z,-2.11
2018-02-07T05:44:26.412Z,-2.1
2018-02-07T05:45:26.668Z,-2.11
2018-02-07T05:46:26.398Z,-2.13
2018-02-07T05:47:26.443Z,-2.1
2018-02-07T05:48:26.588Z,-2.1
2018-02-07T05:49:26.513Z,-2.1
2018-02-07T05:50:26.642Z,-2.14
2018-02-07T05:51:26.609Z,-2.11
2018-02-07T05:52:26.637Z,-2.14
2018-02-07T05:53:26.507Z,-2.1
2018-02-07T05:54:26.427Z,-2.1
2018-02-07T05:55:26.657Z,-2.08
2018-02-07T05:56:26.526Z,-2.08
2018-02-07T05:57:26.476Z,-2.09
2018-02-07T05:58:26.699Z,-2.09
2018-02-07T05:59:26.558Z,-2.06
2018-02-07T06:00:26.679Z,-2.1
2018-02-07T06:01:26.477Z,-2.1
2018-02-07T06:02:26.604Z,-2.09
2018-02-07T06:03:26.614Z,-2.1
2018-02-07T06:04:26.795Z,-2.08
2018-02-07T06:05:26.693Z,-2.1
2018-02-07T06:06:26.632Z,-2.13
2018-02-07T06:07:26.869Z,-2.1
2018-02-07T06:08:26.627Z,-2.1
2018-02-07T06:09:26.670Z,-2.1
2018-02-07T06:10:26.709Z,-2.1
2018-02-07T06:11:26.519Z,-2.09
2018-02-07T06:12:26.402Z,-2.1
2018-02-07T06:13:26.598Z,-2.1
2018-02-07T06:14:26.215Z,-2.08
2018-02-07T06:15:26.120Z,-2.09
2018-02-07T06:16:26.428Z,-2.1
2018-02-07T06:17:26.558Z,-2.13
2018-02-07T06:18:26.658Z,-2.1
2018-02-07T06:19:26.272Z,-2.09
2018-02-07T06:20:26.195Z,-2.09
2018-02-07T06:21:26.110Z,-2.09
2018-02-07T06:22:26.132Z,-2.06
2018-02-07T06:23:26.058Z,-2.09
2018-02-07T06:24:26.414Z,-2.07
2018-02-07T06:25:26.285Z,-2.1
2018-02-07T06:26:26.234Z,-2.1
2018-02-07T06:27:26.322Z,-2.16
2018-02-07T06:28:26.418Z,-2.14
2018-02-07T06:29:26.153Z,-2.18
2018-02-07T06:30:26.351Z,-2.18
2018-02-07T06:31:26.123Z,-2.2
2018-02-07T06:32:26.201Z,-2.21
2018-02-07T06:33:26.177Z,-2.21
2018-02-07T06:34:26.504Z,-2.22
2018-02-07T06:35:26.288Z,-2.27
2018-02-07T06:36:26.304Z,-2.3
2018-02-07T06:37:26.516Z,-2.34
2018-02-07T06:38:26.349Z,-2.34
2018-02-07T06:39:26.242Z,-2.34
2018-02-07T06:40:26.268Z,-2.35
2018-02-07T06:41:26.422Z,-2.35
2018-02-07T06:42:26.264Z,-2.37
2018-02-07T06:43:26.139Z,-2.35
2018-02-07T06:44:25.966Z,-2.33
2018-02-07T06:45:26.222Z,-2.32
2018-02-07T06:46:25.982Z,-2.32
2018-02-07T06:47:26.169Z,-2.32
2018-02-07T06:48:26.121Z,-2.34
2018-02-07T06:49:26.106Z,-2.4
2018-02-07T06:50:27.215Z,-2.41
2018-02-07T06:51:27.340Z,-2.41
2018-02-07T06:52:26.668Z,-2.45
2018-02-07T06:53:26.647Z,-2.4
2018-02-07T06:54:25.996Z,-2.4
2018-02-07T06:55:26.060Z,-2.39
2018-02-07T06:56:26.138Z,-2.35
2018-02-07T06:57:26.110Z,-2.23
2018-02-07T06:58:25.948Z,-2.09
2018-02-07T06:59:26.139Z,-2.06
2018-02-07T07:00:25.992Z,-2.09
2018-02-07T07:01:26.053Z,-2.12
2018-02-07T07:02:26.143Z,-2.13
2018-02-07T07:03:26.140Z,-2.11
2018-02-07T07:04:25.940Z,-2.16
2018-02-07T07:05:26.098Z,-2.22
2018-02-07T07:06:25.955Z,-2.26
2018-02-07T07:07:26.146Z,-2.22
2018-02-07T07:08:26.150Z,-2.22
2018-02-07T07:09:26.079Z,-2.24
2018-02-07T07:10:25.958Z,-2.26
2018-02-07T07:11:26.087Z,-2.24
2018-02-07T07:12:26.106Z,-2.28
2018-02-07T07:13:26.117Z,-2.29
2018-02-07T07:14:26.137Z,-2.28
2018-02-07T07:15:25.936Z,-2.28
2018-02-07T07:16:26.070Z,-2.32
2018-02-07T07:17:26.146Z,-2.3
2018-02-07T07:18:25.976Z,-2.34
2018-02-07T07:19:25.964Z,-2.34
2018-02-07T07:20:26.172Z,-2.34
2018-02-07T07:21:25.917Z,-2.34
2018-02-07T07:22:26.035Z,-2.34
2018-02-07T07:23:26.059Z,-2.34
2018-02-07T07:24:26.062Z,-2.34
2018-02-07T07:25:25.962Z,-2.34
2018-02-07T07:26:26.037Z,-2.32
2018-02-07T07:27:26.111Z,-2.32
2018-02-07T07:28:26.120Z,-2.32
2018-02-07T07:29:26.151Z,-2.27
2018-02-07T07:30:26.061Z,-2.27
2018-02-07T07:31:26.038Z,-2.28
2018-02-07T07:32:26.996Z,-2.28
2018-02-07T07:33:25.894Z,-2.27
2018-02-07T07:34:26.030Z,-2.28
2018-02-07T07:35:25.984Z,-2.28
2018-02-07T07:36:25.845Z,-2.31
2018-02-07T07:37:26.053Z,-2.28
2018-02-07T07:38:26.109Z,-2.29
2018-02-07T07:39:26.185Z,-2.28
2018-02-07T07:40:26.118Z,-2.28
2018-02-07T07:41:26.105Z,-2.28
2018-02-07T07:42:26.145Z,-2.27
2018-02-07T07:43:26.122Z,-2.27
2018-02-07T07:44:26.173Z,-2.28
2018-02-07T07:45:26.168Z,-2.28
2018-02-07T07:46:26.162Z,-2.28
2018-02-07T07:47:26.210Z,-2.28
2018-02-07T07:48:26.146Z,-2.26
2018-02-07T07:49:26.139Z,-2.28
2018-02-07T07:50:26.347Z,-2.26
2018-02-07T07:51:26.066Z,-2.24
2018-02-07T07:52:26.070Z,-2.23
2018-02-07T07:53:25.970Z,-2.23
2018-02-07T07:54:26.073Z,-2.3
2018-02-07T07:55:25.931Z,-2.29
2018-02-07T07:56:26.047Z,-2.28
2018-02-07T07:57:26.036Z,-2.27
2018-02-07T07:58:26.000Z,-2.27
2018-02-07T07:59:26.139Z,-2.22
2018-02-07T08:00:26.263Z,-2.25
2018-02-07T08:01:26.143Z,-2.22
2018-02-07T08:02:26.052Z,-2.2
2018-02-07T08:03:26.166Z,-2.2
2018-02-07T08:04:25.922Z,-2.19
2018-02-07T08:05:26.096Z,-2.17
2018-02-07T08:06:25.898Z,-2.15
2018-02-07T08:07:26.234Z,-2.16
2018-02-07T08:08:26.139Z,-2.13
2018-02-07T08:09:25.978Z,-2.15
2018-02-07T08:10:26.158Z,-2.13
2018-02-07T08:11:26.187Z,-2.1
2018-02-07T08:12:26.025Z,-2.09
2018-02-07T08:13:25.941Z,-2.08
2018-02-07T08:14:26.218Z,-2.06
2018-02-07T08:15:25.870Z,-2.06
2018-02-07T08:16:26.052Z,-2.04
2018-02-07T08:17:26.067Z,-2.03
2018-02-07T08:18:26.074Z,-2.02
2018-02-07T08:19:26.343Z,-2.02
2018-02-07T08:20:26.138Z,-2.02
2018-02-07T08:21:26.081Z,-2.02
2018-02-07T08:22:26.131Z,-1.98
2018-02-07T08:23:26.155Z,-2
2018-02-07T08:24:26.275Z,-1.98
2018-02-07T08:25:26.219Z,-2.01
2018-02-07T08:26:26.028Z,-1.97
2018-02-07T08:27:26.263Z,-1.96
2018-02-07T08:28:26.211Z,-1.93
2018-02-07T08:29:26.294Z,-1.9
2018-02-07T08:30:26.144Z,-1.88
2018-02-07T08:31:26.203Z,-1.89
2018-02-07T08:32:25.980Z,-1.86
2018-02-07T08:33:26.136Z,-1.83
2018-02-07T08:34:26.157Z,-1.81
2018-02-07T08:35:26.013Z,-1.82
2018-02-07T08:36:26.296Z,-1.79
2018-02-07T08:37:26.023Z,-1.78
2018-02-07T08:38:26.036Z,-1.74
2018-02-07T08:39:26.120Z,-1.71
2018-02-07T08:40:26.187Z,-1.72
2018-02-07T08:41:26.244Z,-1.7
2018-02-07T08:42:26.202Z,-1.67
2018-02-07T08:43:26.389Z,-1.65
2018-02-07T08:44:26.236Z,-1.61
2018-02-07T08:45:26.221Z,-1.59
2018-02-07T08:46:26.026Z,-1.55
2018-02-07T08:47:26.167Z,-1.53
2018-02-07T08:48:26.024Z,-1.48
2018-02-07T08:49:26.134Z,-1.48
2018-02-07T08:50:26.095Z,-1.42
2018-02-07T08:51:26.082Z,-1.42
2018-02-07T08:52:26.017Z,-1.42
2018-02-07T08:53:26.103Z,-1.36
2018-02-07T08:54:26.130Z,-1.35
2018-02-07T08:55:26.062Z,-1.3
2018-02-07T08:56:26.201Z,-1.29
2018-02-07T08:57:26.088Z,-1.25
2018-02-07T08:58:26.132Z,-1.23
2018-02-07T08:59:26.276Z,-1.18
2018-02-07T09:00:26.450Z,-1.17
2018-02-07T09:01:26.067Z,-1.18
2018-02-07T09:02:26.109Z,-1.11
2018-02-07T09:03:26.058Z,-1.06
2018-02-07T09:04:26.235Z,-1.05
2018-02-07T09:05:26.014Z,-1.01
2018-02-07T09:06:26.012Z,-1.02
2018-02-07T09:07:25.892Z,-0.99
2018-02-07T09:08:25.962Z,-0.99
2018-02-07T09:09:26.021Z,-1.01
2018-02-07T09:10:26.073Z,-1.02
2018-02-07T09:11:26.167Z,-0.99
2018-02-07T09:12:26.036Z,-0.98
2018-02-07T09:13:25.997Z,-0.96
2018-02-07T09:14:26.272Z,-0.91
2018-02-07T09:15:26.062Z,-0.9
2018-02-07T09:16:26.150Z,-0.86
2018-02-07T09:17:26.020Z,-0.86
2018-02-07T09:18:26.131Z,-0.85
2018-02-07T09:19:26.040Z,-0.81
2018-02-07T09:20:26.152Z,-0.81
2018-02-07T09:21:26.163Z,-0.83
2018-02-07T09:22:26.245Z,-0.85
2018-02-07T09:23:26.004Z,-0.83
2018-02-07T09:24:26.008Z,-0.87
2018-02-07T09:25:25.998Z,-0.86
2018-02-07T09:26:25.880Z,-0.86
2018-02-07T09:27:25.933Z,-0.84
2018-02-07T09:28:26.108Z,-0.84
2018-02-07T09:29:26.092Z,-0.85
2018-02-07T09:30:26.167Z,-0.8
2018-02-07T09:31:26.010Z,-0.8
2018-02-07T09:32:25.997Z,-0.79
2018-02-07T09:33:25.941Z,-0.78
2018-02-07T09:34:26.087Z,-0.73
2018-02-07T09:35:26.202Z,-0.77
2018-02-07T09:36:27.126Z,-0.72
2018-02-07T09:37:25.905Z,-0.69
2018-02-07T09:38:25.964Z,-0.65
2018-02-07T09:39:26.122Z,-0.61
2018-02-07T09:40:26.074Z,-0.59
2018-02-07T09:41:25.934Z,-0.55
2018-02-07T09:42:26.076Z,-0.55
2018-02-07T09:43:26.228Z,-0.53
2018-02-07T09:44:25.895Z,-0.49
2018-02-07T09:45:25.965Z,-0.48
2018-02-07T09:46:26.000Z,-0.43
2018-02-07T09:47:26.112Z,-0.4
2018-02-07T09:48:26.072Z,-0.4
2018-02-07T09:49:25.848Z,-0.36
2018-02-07T09:50:25.935Z,-0.36
2018-02-07T09:51:26.017Z,-0.35
2018-02-07T09:52:25.816Z,-0.31
2018-02-07T09:53:25.988Z,-0.31
2018-02-07T09:54:25.964Z,-0.34
2018-02-07T09:55:26.064Z,-0.3
2018-02-07T09:56:26.014Z,-0.29
2018-02-07T09:57:25.994Z,-0.25
2018-02-07T09:58:25.981Z,-0.29
2018-02-07T09:59:26.007Z,-0.32
2018-02-07T10:00:25.977Z,-0.38
2018-02-07T10:01:25.963Z,-0.39
2018-02-07T10:02:25.992Z,-0.41
2018-02-07T10:03:25.872Z,-0.41
2018-02-07T10:04:25.901Z,-0.39
2018-02-07T10:05:26.140Z,-0.38
2018-02-07T10:06:26.035Z,-0.4
2018-02-07T10:07:25.869Z,-0.4
2018-02-07T10:08:25.921Z,-0.39
2018-02-07T10:09:25.997Z,-0.39
2018-02-07T10:10:25.900Z,-0.42
2018-02-07T10:11:26.069Z,-0.44
2018-02-07T10:12:25.971Z,-0.43
2018-02-07T10:13:26.002Z,-0.42
2018-02-07T10:14:26.118Z,-0.43
2018-02-07T10:15:26.079Z,-0.39
2018-02-07T10:16:26.029Z,-0.38
2018-02-07T10:17:26.132Z,-0.37
2018-02-07T10:18:26.087Z,-0.38
2018-02-07T10:19:26.083Z,-0.37
2018-02-07T10:20:26.077Z,-0.39
2018-02-07T10:21:25.937Z,-0.4
2018-02-07T10:22:25.952Z,-0.36
2018-02-07T10:23:25.870Z,-0.34
2018-02-07T10:24:26.089Z,-0.37
2018-02-07T10:25:25.856Z,-0.37
2018-02-07T10:26:25.940Z,-0.39
2018-02-07T10:27:26.017Z,-0.39
2018-02-07T10:28:25.941Z,-0.36
2018-02-07T10:29:26.058Z,-0.38
2018-02-07T10:30:26.010Z,-0.36
2018-02-07T10:31:26.004Z,-0.39
2018-02-07T10:32:25.925Z,-0.38
2018-02-07T10:33:25.984Z,-0.37
2018-02-07T10:34:25.815Z,-0.31
2018-02-07T10:35:25.826Z,-0.27
2018-02-07T10:36:26.090Z,-0.26
2018-02-07T10:37:25.953Z,-0.23
2018-02-07T10:38:26.001Z,-0.21
2018-02-07T10:39:25.972Z,-0.2
2018-02-07T10:40:26.061Z,-0.17
2018-02-07T10:41:26.022Z,-0.17
2018-02-07T10:42:26.044Z,-0.12
2018-02-07T10:43:25.936Z,-0.09
2018-02-07T10:44:26.217Z,-0.03
2018-02-07T10:45:25.941Z,0.02
2018-02-07T10:46:25.960Z,0.01
2018-02-07T10:47:25.965Z,0.08
2018-02-07T10:48:26.196Z,0.11
2018-02-07T10:49:26.262Z,0.21
2018-02-07T10:50:26.155Z,0.18
2018-02-07T10:51:26.252Z,0.1
2018-02-07T10:52:26.193Z,0.07
2018-02-07T10:53:26.256Z,0.11
2018-02-07T10:54:26.218Z,0.05
2018-02-07T10:55:25.942Z,0.04
2018-02-07T10:56:26.079Z,0.06
2018-02-07T10:57:26.054Z,0.05
2018-02-07T10:58:26.250Z,0.02
2018-02-07T10:59:26.212Z,0.07
2018-02-07T11:00:26.233Z,0.13
2018-02-07T11:01:26.014Z,0.12
2018-02-07T11:02:26.239Z,0.09
2018-02-07T11:03:26.392Z,0.2
2018-02-07T11:04:26.006Z,0.21
2018-02-07T11:05:26.072Z,0.33
2018-02-07T11:06:26.189Z,0.32
2018-02-07T11:07:26.222Z,0.35
2018-02-07T11:08:26.071Z,0.38
2018-02-07T11:09:26.274Z,0.38
2018-02-07T11:10:26.088Z,0.44
2018-02-07T11:11:26.036Z,0.46
2018-02-07T11:12:26.165Z,0.44
2018-02-07T11:13:26.076Z,0.45
2018-02-07T11:14:25.989Z,0.44
2018-02-07T11:15:26.044Z,0.51
2018-02-07T11:16:25.976Z,0.52
2018-02-07T11:17:26.242Z,0.53
2018-02-07T11:18:26.166Z,0.58
2018-02-07T11:19:25.994Z,0.53
2018-02-07T11:20:26.523Z,0.54
2018-02-07T11:21:25.969Z,0.58
2018-02-07T11:22:25.865Z,0.62
2018-02-07T11:23:25.830Z,0.69
2018-02-07T11:24:25.844Z,0.75
2018-02-07T11:25:25.880Z,0.75
2018-02-07T11:26:25.813Z,0.7
2018-02-07T11:27:25.921Z,0.75
2018-02-07T11:28:25.949Z,0.73
2018-02-07T11:29:25.899Z,0.81
2018-02-07T11:30:25.803Z,0.83
2018-02-07T11:31:26.226Z,0.81
2018-02-07T11:32:25.935Z,0.85
2018-02-07T11:33:25.813Z,0.81
2018-02-07T11:34:25.833Z,0.87
2018-02-07T11:35:25.771Z,0.9
2018-02-07T11:36:25.996Z,0.94
2018-02-07T11:37:25.964Z,0.94
2018-02-07T11:38:25.894Z,0.97
2018-02-07T11:39:26.031Z,1
2018-02-07T11:40:25.947Z,1.07
2018-02-07T11:41:25.947Z,1.13
2018-02-07T11:42:25.749Z,1.15
2018-02-07T11:43:25.881Z,1.12
2018-02-07T11:44:25.950Z,1.1
2018-02-07T11:45:26.051Z,1.12
2018-02-07T11:46:25.885Z,1.17
2018-02-07T11:47:25.909Z,1.17
2018-02-07T11:48:26.068Z,1.18
2018-02-07T11:49:25.829Z,1.25
2018-02-07T11:50:26.002Z,1.22
2018-02-07T11:51:25.857Z,1.25
2018-02-07T11:52:25.910Z,1.34
2018-02-07T11:53:25.951Z,1.37
2018-02-07T11:54:25.966Z,1.38
2018-02-07T11:55:25.800Z,1.43
2018-02-07T11:56:25.764Z,1.35
2018-02-07T11:57:25.976Z,1.44
2018-02-07T11:58:25.821Z,1.46
2018-02-07T11:59:25.929Z,1.43
2018-02-07T12:00:25.968Z,1.39
2018-02-07T12:01:25.803Z,1.43
2018-02-07T12:02:25.791Z,1.44
2018-02-07T12:03:25.836Z,1.47
2018-02-07T12:04:25.921Z,1.54
2018-02-07T12:05:25.857Z,1.57
2018-02-07T12:06:25.866Z,1.51
2018-02-07T12:07:25.806Z,1.57
2018-02-07T12:08:25.991Z,1.55
2018-02-07T12:09:25.864Z,1.62
2018-02-07T12:10:26.082Z,1.56
2018-02-07T12:11:25.855Z,1.61
2018-02-07T12:12:25.993Z,1.57
2018-02-07T12:13:25.993Z,1.67
2018-02-07T12:14:25.942Z,1.67
2018-02-07T12:15:26.075Z,1.73
2018-02-07T12:16:26.023Z,1.67
2018-02-07T12:17:25.963Z,1.72
2018-02-07T12:18:25.848Z,1.77
2018-02-07T12:19:25.855Z,1.82
2018-02-07T12:20:26.053Z,1.81
2018-02-07T12:21:25.861Z,1.86
2018-02-07T12:22:26.611Z,1.8
2018-02-07T12:23:26.679Z,1.81
2018-02-07T12:24:26.684Z,1.78
2018-02-07T12:25:26.772Z,1.81
2018-02-07T12:26:26.822Z,1.81
2018-02-07T12:27:26.730Z,1.8
2018-02-07T12:28:26.812Z,1.79
2018-02-07T12:29:27.399Z,1.76
2018-02-07T12:30:26.624Z,1.8
2018-02-07T12:31:27.027Z,1.81
2018-02-07T12:32:26.667Z,1.82
2018-02-07T12:33:26.631Z,1.84
2018-02-07T12:34:26.695Z,1.86
2018-02-07T12:35:26.696Z,1.88
2018-02-07T12:36:26.673Z,2
2018-02-07T12:37:26.819Z,2.08
2018-02-07T12:38:26.710Z,2.06
2018-02-07T12:39:26.673Z,2.07
2018-02-07T12:40:26.683Z,2.14
2018-02-07T12:41:26.743Z,2.17
2018-02-07T12:42:26.632Z,2.18
2018-02-07T12:43:26.848Z,2.25
2018-02-07T12:44:26.623Z,2.25
2018-02-07T12:45:26.753Z,2.17
2018-02-07T12:46:26.990Z,2.12
2018-02-07T12:47:26.886Z,2.22
2018-02-07T12:48:26.835Z,2.17
2018-02-07T12:49:26.885Z,2.25
2018-02-07T12:50:26.818Z,2.25
2018-02-07T12:51:26.779Z,2.21
2018-02-07T12:52:27.069Z,2.23
2018-02-07T12:53:26.573Z,2.26
2018-02-07T12:54:26.887Z,2.31
2018-02-07T12:55:26.683Z,2.38
2018-02-07T12:56:26.618Z,2.39
2018-02-07T12:57:26.591Z,2.43
2018-02-07T12:58:26.812Z,2.44
2018-02-07T12:59:26.546Z,2.49
2018-02-07T13:00:26.622Z,2.53
2018-02-07T13:01:26.859Z,2.5
2018-02-07T13:02:26.796Z,2.57